Tiempo atmosférico en la estación meteorológica de Biescas, Huesca (1100 m.)



Fecha
DESCASC
Temp. máxima en grados centígrados (hora)
DESCASC
Temp. mínima en grados centígrados (hora)
DESCASC
Temp. media en grados centígrados
DESCASC
Racha de viento máxima en m/sg (hora)
DESCASC
Velocidad máxima media en intervalos de 10 minutos(hora)
DESCASC
Precipitaciones diarias en mm
DESCASC
Precipitaciones de 00:00 a 06:00 en mm
DESCASC
Precipitaciones de 06:00 a 12:00 en mm
DESCASC
Precipitaciones de 12:00 a 18:00 en mm
DESCASC
Precipitaciones de 18:00 a 24:00 en mm
DESCASC
23-06-2019 26.7 (16:30) 10 (06:30) 18.4 8.06 (13:30) 2.22 (13:30) 0 0 0 0 0
22-06-2019 23.7 (17:30) 6.8 (06:50) 15.3 6.67 (13:30) 2.5 (17:00) 0 0 0 0 0
21-06-2019 19.7 (16:50) 10.1 (23:59) 14.9 7.5 (15:40) 3.61 (15:50) 42.6 37 5.4 0.2 0
20-06-2019 22.7 (14:10) 11.4 (00:00) 17.1 6.39 (16:20) 2.5 (16:20) 9 0.4 0 0 8.6
19-06-2019 -- (--) -- (--) -- -- (--) -- (--) -- -- -- -- 0
18-06-2019 26.1 (15:10) 11 (00:00) 18.6 8.33 (17:20) 3.06 (15:50) 0.4 0.4 0 0 0
17-06-2019 25.2 (16:20) 8.3 (00:00) 16.8 6.67 (13:00) 2.78 (12:40) 0 0 0 0 0
16-06-2019 22.9 (16:30) 5.3 (00:00) 14.1 6.67 (12:20) 3.06 (12:50) 0 0 0 0 0
15-06-2019 19.6 (16:10) 8.5 (00:00) 14.1 9.17 (16:00) 3.61 (15:40) 0 0 0 0 0
14-06-2019 18.3 (17:20) 9.4 (00:00) 13.8 7.22 (14:20) 1.94 (14:20) 1.6 0 0 1.6 0
13-06-2019 20.1 (15:30) 4.7 (00:00) 12.4 9.44 (18:00) 3.06 (12:00) 0 0 0 0 0
12-06-2019 14.9 (17:40) 0.6 (00:00) 7.7 8.33 (12:10) 3.61 (11:20) 0 0 0 0 0
11-06-2019 13.7 (16:40) 4.6 (00:00) 9.1 8.61 (19:20) 3.61 (14:00) 3 2.6 0.2 0.2 0
10-06-2019 18.5 (14:20) 7.9 (00:00) 13.2 7.5 (13:30) 3.33 (13:10) 1.2 1.2 0 0 0
09-06-2019 21.6 (16:10) 10.4 (00:00) 16 5.56 (12:40) 1.94 (12:50) 0 0 0 0 0
08-06-2019 20.7 (16:10) 2.6 (00:00) 11.7 7.22 (19:30) 3.33 (19:30) 0 0 0 0 0
07-06-2019 15.3 (16:30) 5.9 (00:00) 10.6 16.39 (06:20) 4.72 (00:40) 14 0 14 0 0
06-06-2019 18 (16:10) 5.1 (00:00) 11.5 15.83 (23:50) 4.72 (17:40) 0 0 0 0 0
05-06-2019 14.3 (00:00) 5.2 (00:00) 9.8 13.06 (07:10) 5 (08:20) 17.8 0.2 15 2.6 0
04-06-2019 25 (17:10) 10.5 (00:00) 17.8 10.28 (20:40) 3.89 (14:30) 2.6 0 0 0 2.6
03-06-2019 25.8 (16:00) 12.2 (00:00) 19 7.22 (16:20) 3.06 (14:10) 0 0 0 0 0
02-06-2019 27 (17:10) 8.8 (00:00) 17.9 5.83 (14:20) 2.22 (14:20) 0 0 0 0 0
01-06-2019 25.3 (16:10) 8.9 (00:00) 17.1 6.94 (16:40) 3.06 (16:20) 0 0 0 0 0
31-05-2019 23.9 (17:20) 5.3 (00:00) 14.6 7.78 (15:30) 3.33 (15:40) 0 0 0 0 0
30-05-2019 23.9 (16:10) 5.4 (00:00) 14.6 5.28 (12:30) 2.22 (12:30) 0 0 0 0 0
29-05-2019 16 (16:20) 4 (00:00) 10 9.72 (18:30) 4.17 (18:30) 0 0 0 0 0
28-05-2019 14.8 (16:20) 6.1 (00:00) 10.5 12.5 (17:30) 4.72 (17:40) 0 0 0 0 0
27-05-2019 20.3 (15:10) 5.2 (00:00) 12.7 9.17 (18:00) 3.33 (18:00) 0 0 0 0 0
26-05-2019 19.6 (15:30) 4.5 (00:00) 12.1 6.67 (18:20) 3.06 (16:40) 0 0 0 0 0

Gráficas

Temp. máximas Temp. mínimas Temp. medias Precipitaciones Rachas de viento máximas Velocidades máximas media en intervalos de 10 minutos

Datos horarios

Fecha y hora oficial Temperatura (ºC) Velocidad del viento (km/h) Dirección del viento Racha (km/h) Dirección de racha Precipitación (mm) Presión (hPa) Tendencia (hPa) Humedad (%)
2019-06-24 23:00:00 17.7 0 Calma 8 Sur 0 -- -- 59
2019-06-24 22:00:00 19.6 0 Calma 8 Sur 0 -- -- 54
2019-06-24 21:00:00 24.1 4 Este 27 Oeste 0 -- -- 39
2019-06-24 20:00:00 25.8 7 Sudoeste 23 Sudoeste 0 -- -- 30
2019-06-24 19:00:00 26.6 6 Sudoeste 24 Sudoeste 0 -- -- 30
2019-06-24 18:00:00 26.2 6 Sur 22 Sur 0 -- -- 30
2019-06-24 17:00:00 26.4 6 Sudoeste 16 Sur 0 -- -- 29
2019-06-24 16:00:00 26.7 6 Sudoeste 29 Sudoeste 0 -- -- 31
2019-06-24 15:00:00 26 6 Sudoeste 30 Sur 0 -- -- 33
2019-06-24 14:00:00 25.6 10 Sudoeste 31 Noroeste 0 -- -- 34
2019-06-24 13:00:00 26.1 10 Sur 27 Oeste 0 -- -- 26
2019-06-24 12:00:00 25.8 9 Sudoeste 20 Oeste 0 -- -- 28
2019-06-24 11:00:00 23.5 3 Este 10 Norte 0 -- -- 45
2019-06-24 10:00:00 20.6 3 Sudoeste 9 Este 0 -- -- 67
2019-06-24 09:00:00 17.1 3 Sudeste 9 Sur 0 -- -- 73
2019-06-24 08:00:00 14.2 3 Sur 8 Sudeste 0 -- -- 82
2019-06-24 07:00:00 13.9 3 Sudoeste 10 Sudoeste 0 -- -- 78
2019-06-24 06:00:00 14.7 3 Sudoeste 13 Sur 0 -- -- 76
2019-06-24 05:00:00 14.8 4 Oeste 10 Sur 0 -- -- 76
2019-06-24 04:00:00 14.6 4 Sudoeste 7 Sur 0 -- -- 81
2019-06-24 03:00:00 15 3 Noroeste 7 Norte 0 -- -- 80
2019-06-24 02:00:00 15.3 2 Sudoeste 4 Sudoeste 0 -- -- 79
2019-06-24 01:00:00 15.9 0 Calma 6 Sudeste 0 -- -- 79
2019-06-24 00:00:00 16.7 2 Oeste 6 Sudoeste 0 -- -- 75
2019-06-23 23:00:00 17.7 2 Sudoeste 6 Sur 0 -- -- 72
2019-06-23 22:00:00 19.1 0 Calma 5 Sur 0 -- -- 69
2019-06-23 21:00:00 20.9 3 Oeste 6 Sur 0 -- -- 62
2019-06-23 20:00:00 23.4 2 Sudoeste 19 Sudeste 0 -- -- 54
2019-06-23 19:00:00 24.3 4 Sudoeste 13 Sur 0 -- -- 50
2019-06-23 18:00:00 25.5 2 Oeste 10 Sudoeste 0 -- -- 48
2019-06-23 17:00:00 26.6 2 Norte 18 Sur 0 -- -- 46
2019-06-23 16:00:00 26.4 5 Este 19 Sur 0 -- -- 43
2019-06-23 15:00:00 25.9 4 Nordeste 21 Sudeste 0 -- -- 43
2019-06-23 14:00:00 26.1 6 Sudeste 29 Este 0 -- -- 42
2019-06-23 13:00:00 25.3 7 Sudeste 23 Sudeste 0 -- -- 47
2019-06-23 12:00:00 24.3 7 Sudeste 16 Sur 0 -- -- 51
2019-06-23 11:00:00 21.2 3 Sudeste 5 Este 0 -- -- 58
2019-06-23 10:00:00 17.7 2 Sudeste 5 Este 0 -- -- 65
2019-06-23 09:00:00 13.9 2 Este 7 Este 0 -- -- 80
2019-06-23 08:00:00 10.5 2 Sur 3 Oeste 0 -- -- 89
2019-06-23 07:00:00 10 0 Calma 4 Sudoeste 0 -- -- 88
2019-06-23 06:00:00 10.2 0 Calma 3 Sudoeste 0 -- -- 87
2019-06-23 05:00:00 10.3 0 Calma 3 Sudoeste 0 -- -- 86
2019-06-23 04:00:00 10.8 0 Calma 3 Sudeste 0 -- -- 84
2019-06-23 03:00:00 11.3 0 Calma 3 Oeste 0 -- -- 82
2019-06-23 02:00:00 11.9 0 Calma 3 Sur 0 -- -- 80
2019-06-23 01:00:00 12.6 0 Calma 3 Oeste 0 -- -- 79
2019-06-23 00:00:00 13.3 0 Calma 3 Noroeste 0 -- -- 76
2019-06-22 23:00:00 14.1 0 Calma 3 Sur 0 -- -- 75
2019-06-22 22:00:00 15.3 0 Calma 3 Sur 0 -- -- 71
2019-06-22 21:00:00 17 2 Sudoeste 8 Oeste 0 -- -- 64
2019-06-22 20:00:00 18.8 3 Oeste 12 Sudeste 0 -- -- 55
2019-06-22 19:00:00 21.4 4 Noroeste 14 Sudeste 0 -- -- 45
2019-06-22 18:00:00 23.3 3 Sudoeste 19 Sudeste 0 -- -- 41
2019-06-22 17:00:00 23.3 9 Sudeste 18 Sudoeste 0 -- -- 39
2019-06-22 16:00:00 23.3 5 Sudeste 17 Sur 0 -- -- 43
2019-06-22 15:00:00 23 7 Sur 24 Sur 0 -- -- 43
2019-06-22 14:00:00 21.6 8 Sur 24 Sur 0 -- -- 48
2019-06-22 13:00:00 21.3 7 Sudeste 20 Sudoeste 0 -- -- 49
2019-06-22 12:00:00 19.8 3 Sudeste 5 Sudeste 0 -- -- 44
2019-06-22 11:00:00 17.2 3 Sudeste 6 Sudeste 0 -- -- 58
2019-06-22 10:00:00 14.3 3 Este 5 Este 0 -- -- 74
2019-06-22 09:00:00 10.9 3 Este 5 Este 0 -- -- 88
2019-06-22 08:00:00 8.1 2 Sudeste 5 Este 0 -- -- 95
2019-06-22 07:00:00 6.8 0 Calma 3 Oeste 0 -- -- 95
2019-06-22 06:00:00 7 0 Calma 3 Oeste 0 -- -- 95
2019-06-22 05:00:00 7.4 0 Calma 3 Oeste 0 -- -- 94
2019-06-22 04:00:00 7.8 0 Calma 3 Sudoeste 0 -- -- 93
2019-06-22 03:00:00 8.3 0 Calma 3 Oeste 0 -- -- 94
2019-06-22 02:00:00 8.7 0 Calma 4 Sudoeste 0 -- -- 92
2019-06-22 01:00:00 9.4 0 Calma -- -- 0 -- -- 91
2019-06-22 00:00:00 10.1 0 Calma 4 Oeste 0 -- -- 90
2019-06-21 23:00:00 11 0 Calma 8 Sudoeste 0 -- -- 88
2019-06-21 22:00:00 12.3 3 Sudoeste 7 Sudoeste 0 -- -- 87
2019-06-21 21:00:00 13.7 3 Sur 7 Sur 0 -- -- 84
2019-06-21 20:00:00 15.1 0 Calma 5 Sur 0 -- -- 83
2019-06-21 19:00:00 16.9 2 Oeste 13 Sudeste 0 -- -- 76
2019-06-21 18:00:00 18.3 3 Sur 19 Sudeste 0 -- -- 71
2019-06-21 17:00:00 19.7 6 Sudeste 17 Este 0 -- -- 63
2019-06-21 16:00:00 17.6 5 Este 27 Sudeste 0 -- -- 77
2019-06-21 15:00:00 17.2 3 Norte 13 Sudeste 0.2 -- -- 81
2019-06-21 14:00:00 18.1 4 Norte 21 Este 0 -- -- 71
2019-06-21 13:00:00 17.5 5 Norte 12 Noroeste 0 -- -- 80
2019-06-21 12:00:00 16.5 2 Este 4 Este 0 -- -- 84
2019-06-21 11:00:00 14.5 0 Calma 5 Este 0 -- -- 86
2019-06-21 10:00:00 12.8 0 Calma 5 Norte 0.6 -- -- 94
2019-06-21 09:00:00 12.2 2 Este 5 Nordeste 0.6 -- -- 95
2019-06-21 08:00:00 11.5 0 Calma 4 Sudoeste 1.8 -- -- 96
2019-06-21 07:00:00 11.3 0 Calma 11 Oeste 2.4 -- -- 95
2019-06-21 06:00:00 11.4 0 Calma 9 Noroeste 4 -- -- 96
2019-06-21 05:00:00 11.3 2 Sudoeste 5 Sudoeste 8.4 -- -- 95
2019-06-21 04:00:00 11.7 3 Noroeste 10 Sudeste 13.6 -- -- 95
2019-06-21 03:00:00 11.9 3 Oeste 9 Sudoeste 2 -- -- 94
2019-06-21 02:00:00 12 2 Oeste 6 Sudoeste 5.2 -- -- 94
2019-06-21 01:00:00 12.4 0 Calma 6 Sudoeste 3.8 -- -- 92
2019-06-21 00:00:00 13.3 0 Calma 7 Sur 7 -- -- 90
2019-06-20 23:00:00 14.3 0 Calma 5 Sur 0 -- -- 89
2019-06-20 22:00:00 14.7 2 Oeste 13 Sudeste 1.6 -- -- 87
2019-06-20 21:00:00 16.7 3 Sur 6 Sudeste 0 -- -- 70
2019-06-20 20:00:00 18.4 2 Sudoeste 7 Sudoeste 0 -- -- 68
2019-06-20 19:00:00 18.1 4 Sudeste 17 Noroeste 0 -- -- 68
2019-06-20 18:00:00 20.1 6 Noroeste 19 Oeste 0 -- -- 55
2019-06-20 17:00:00 21.7 6 Oeste 23 Este 0 -- -- 46
2019-06-20 16:00:00 22 3 Norte 21 Este 0 -- -- 52
2019-06-20 15:00:00 22.3 6 Nordeste 21 Sudeste 0 -- -- 50
2019-06-20 14:00:00 22.3 5 Sudeste 18 Este 0 -- -- 52
2019-06-20 13:00:00 21.4 6 Sudeste 20 Sur 0 -- -- 55
2019-06-20 12:00:00 20.4 6 Sudeste 13 Este 0 -- -- 57
2019-06-20 11:00:00 17.3 3 Este 8 Este 0 -- -- 74
2019-06-20 10:00:00 15.4 3 Sudeste 14 Sudeste 0 -- -- 76
2019-06-20 09:00:00 14.2 2 Este 6 Este 0 -- -- 84
2019-06-20 08:00:00 12.3 0 Calma 3 Este 0 -- -- 90
2019-06-20 07:00:00 11.5 0 Calma 2 Oeste 0 -- -- 89
2019-06-20 06:00:00 11.5 0 Calma -- -- 0 -- -- 91
2019-06-20 05:00:00 11.7 0 Calma 2 Oeste 0 -- -- 89
2019-06-20 04:00:00 12.4 0 Calma 4 Noroeste 0 -- -- 86
2019-06-20 03:00:00 13.2 0 Calma 4 Sudoeste 0 -- -- 87
2019-06-20 02:00:00 13.8 0 Calma 8 Oeste 0 -- -- 84
2019-06-20 01:00:00 15.3 0 Calma 11 Sur 0.4 -- -- 83
2019-06-20 00:00:00 16 2 Sudoeste 8 Noroeste 0 -- -- 75
2019-06-19 23:00:00 16.3 0 Calma 4 Sudoeste 0 -- -- 70
2019-06-19 22:00:00 16.7 0 Calma 4 Sudoeste 0 -- -- 64
2019-06-19 21:00:00 18.2 0 Calma 6 Sudoeste 0 -- -- 59
2019-06-19 20:00:00 19.7 3 Sudoeste 13 Sudoeste 0 -- -- 53
2019-06-19 19:00:00 21.2 3 Sudeste 13 Sudoeste 0 -- -- 47
2019-06-19 18:00:00 22.1 4 Sudoeste 12 Este 0 -- -- 41
2019-06-19 17:00:00 22.5 3 Nordeste 22 Este 0 -- -- 42
2019-06-19 16:00:00 23.1 6 Sudeste 20 Este 0 -- -- 36
2019-06-19 15:00:00 23.1 6 Sudeste -- -- -- -- -- 41
2019-06-19 14:00:00 23 8 Sudeste 24 Este 0 -- -- 38
2019-06-19 13:00:00 22.4 6 Sudeste 24 Sudeste 0 -- -- 41
2019-06-19 12:00:00 21.7 8 Sudeste -- -- -- -- -- 37
2019-06-19 11:00:00 -- -- -- -- -- -- -- -- --
2019-06-19 10:00:00 -- -- -- -- -- -- -- -- --
2019-06-19 09:00:00 -- -- -- -- -- -- -- -- --
2019-06-19 08:00:00 -- -- -- -- -- -- -- -- --
2019-06-19 07:00:00 -- -- -- -- -- -- -- -- --
2019-06-19 06:00:00 -- -- -- -- -- -- -- -- --
2019-06-19 05:00:00 -- -- -- -- -- -- -- -- --
2019-06-19 04:00:00 11.5 0 Calma 3 Sudoeste 0 -- -- 68
2019-06-19 03:00:00 12.8 0 Calma 5 Este 0 -- -- 63
2019-06-19 02:00:00 14.2 0 Calma 5 Sur 0 -- -- 60
2019-06-19 01:00:00 15.9 2 Sur 6 Sur 0 -- -- 57
2019-06-19 00:00:00 16.9 2 Sur 9 Este 0 -- -- 54
2019-06-18 23:00:00 18.7 5 Oeste 21 Sudoeste 0 -- -- 50
2019-06-18 22:00:00 21.6 4 Norte 20 Sudoeste 0 -- -- 44
2019-06-18 21:00:00 21.6 3 Sudoeste 13 Sudoeste 0 -- -- 40
2019-06-18 20:00:00 23.2 3 Oeste 25 Sur 0 -- -- 39
2019-06-18 19:00:00 23.9 4 Oeste 19 Sudeste 0 -- -- 35
2019-06-18 18:00:00 24.8 5 Sudeste 30 Noroeste 0 -- -- 34
2019-06-18 17:00:00 25.5 6 Sudeste 28 Sur 0 -- -- 33
2019-06-18 16:00:00 24.7 6 Sudeste 27 Sur 0 -- -- 37
2019-06-18 15:00:00 25.5 7 Este 17 Este 0 -- -- 42
2019-06-18 14:00:00 25.1 5 Nordeste 24 Sur 0 -- -- 34
2019-06-18 13:00:00 25.2 6 Sudeste 23 Sudeste 0 -- -- 33
2019-06-18 12:00:00 23.4 4 Norte 12 Noroeste -- -- -- 50
2019-06-18 11:00:00 19.9 2 Este 5 Sudeste 0 -- -- 61
2019-06-18 10:00:00 17.7 3 Sudeste 6 Este 0 -- -- 64
2019-06-18 09:00:00 14.7 2 Nordeste 6 Este 0 -- -- 71
2019-06-18 08:00:00 11.6 2 Este 6 Sur 0 -- -- 90
2019-06-18 07:00:00 11 0 Calma 5 Oeste 0 -- -- 88
2019-06-18 06:00:00 11.4 2 Noroeste 8 Sudoeste 0 -- -- 87
2019-06-18 05:00:00 12.4 3 Oeste 9 Noroeste 0.4 -- -- 85
2019-06-18 04:00:00 13.2 0 Calma 8 Oeste 0 -- -- 67
2019-06-18 03:00:00 13 3 Sudoeste 8 Sur 0 -- -- 68
2019-06-18 02:00:00 12.8 2 Noroeste 6 Noroeste 0 -- -- 67
2019-06-18 01:00:00 12.9 3 Sudeste 7 Sudoeste 0 -- -- 66
2019-06-18 00:00:00 13.8 0 Calma 5 Norte 0 -- -- 59
2019-06-17 23:00:00 14.7 0 Calma 3 Oeste 0 -- -- 55
2019-06-17 22:00:00 16.2 0 Calma 5 Sudeste 0 -- -- 52
2019-06-17 21:00:00 18.6 2 Oeste 5 Oeste 0 -- -- 47
2019-06-17 20:00:00 20 4 Oeste 13 Sur 0 -- -- 35
2019-06-17 19:00:00 22.1 2 Oeste 12 Sudeste 0 -- -- 36
2019-06-17 18:00:00 24.4 3 Sudoeste 17 Este 0 -- -- 34
2019-06-17 17:00:00 24.8 5 Sudoeste 20 Nordeste 0 -- -- 32
2019-06-17 16:00:00 24.6 6 Sudeste 18 Sudeste 0 -- -- 30
2019-06-17 15:00:00 24.9 5 Sudeste 18 Sur 0 -- -- 31
2019-06-17 14:00:00 24.6 6 Sudeste 20 Sudeste 0 -- -- 32
2019-06-17 13:00:00 23.8 8 Sudeste 24 Sur 0 -- -- 34
2019-06-17 12:00:00 22.4 6 Sudeste 16 Sur 0 -- -- 41
2019-06-17 11:00:00 20.2 3 Sudeste 4 Sudeste 0 -- -- 51
2019-06-17 10:00:00 16.8 3 Sudeste 4 Sudeste 0 -- -- 64
2019-06-17 09:00:00 12.9 2 Este 4 Sudeste 0 -- -- 73
2019-06-17 08:00:00 9.5 0 Calma 3 Nordeste 0 -- -- 87
2019-06-17 07:00:00 8.4 0 Calma -- -- 0 -- -- 85
2019-06-17 06:00:00 8.5 0 Calma 0 Calma 0 -- -- 82
2019-06-17 05:00:00 9 0 Calma 2 Oeste 0 -- -- 81
2019-06-17 04:00:00 9.7 0 Calma 3 Oeste 0 -- -- 78
2019-06-17 03:00:00 10.5 0 Calma 3 Sudoeste 0 -- -- 78
2019-06-17 02:00:00 11.3 0 Calma -- -- 0 -- -- 76
2019-06-17 01:00:00 12.2 0 Calma 2 Este 0 -- -- 73
2019-06-17 00:00:00 13.1 0 Calma 3 Sudoeste 0 -- -- 72
2019-06-16 23:00:00 14.2 0 Calma 5 Oeste 0 -- -- 68
2019-06-16 22:00:00 15.8 0 Calma 4 Sur 0 -- -- 60
2019-06-16 21:00:00 18.6 0 Calma 12 Sudoeste 0 -- -- 50
2019-06-16 20:00:00 20 4 Oeste 12 Oeste 0 -- -- 43
2019-06-16 19:00:00 21.2 3 Sudoeste 17 Sudeste 0 -- -- 43
2019-06-16 18:00:00 22.7 5 Sudeste 16 Sudeste 0 -- -- 35
2019-06-16 17:00:00 22.7 5 Sudeste 17 Sudeste 0 -- -- 33
2019-06-16 16:00:00 22.5 6 Sudeste 23 Sudeste 0 -- -- 31
2019-06-16 15:00:00 22 5 Sudeste 17 Sur 0 -- -- 35
2019-06-16 14:00:00 21.2 7 Sudeste 24 Sur 0 -- -- 39
2019-06-16 13:00:00 20.3 7 Sudeste 24 Sudeste 0 -- -- 42
2019-06-16 12:00:00 19.5 8 Sudeste 18 Sudoeste 0 -- -- 41
2019-06-16 11:00:00 17.1 4 Este 11 Este 0 -- -- 50
2019-06-16 10:00:00 14.4 0 Calma 5 Este 0 -- -- 63
2019-06-16 09:00:00 9.7 2 Este 6 Nordeste 0 -- -- 77
2019-06-16 08:00:00 6.4 2 Nordeste 4 Nordeste 0 -- -- 91
2019-06-16 07:00:00 5.3 0 Calma 3 Sudoeste 0 -- -- 90
2019-06-16 06:00:00 5.6 0 Calma 2 Sudoeste 0 -- -- 90
2019-06-16 05:00:00 5.9 0 Calma 4 Oeste 0 -- -- 90
2019-06-16 04:00:00 6.3 2 Sudoeste 3 Sudoeste 0 -- -- 89
2019-06-16 03:00:00 6.6 2 Sudoeste 4 Sudoeste 0 -- -- 89
2019-06-16 02:00:00 7 0 Calma 3 Noroeste 0 -- -- 89
2019-06-16 01:00:00 7.8 0 Calma 3 Sudoeste 0 -- -- 86
2019-06-16 00:00:00 8.5 0 Calma 3 Sudoeste 0 -- -- 83
2019-06-15 23:00:00 9.5 0 Calma 5 Sudoeste 0 -- -- 80
2019-06-15 22:00:00 11 2 Oeste 6 Sudoeste 0 -- -- 75
2019-06-15 21:00:00 12.5 0 Calma 5 Noroeste 0 -- -- 72
2019-06-15 20:00:00 14.1 0 Calma 11 Norte 0 -- -- 67
2019-06-15 19:00:00 15.7 2 Sudoeste 15 Norte 0 -- -- 61
2019-06-15 18:00:00 18.9 4 Nordeste 21 Este 0 -- -- 47
2019-06-15 17:00:00 18.9 7 Sudeste 27 Sur 0 -- -- 45
2019-06-15 16:00:00 19.3 13 Sur 33 Sur 0 -- -- 44
2019-06-15 15:00:00 19 12 Sudeste 25 Sur 0 -- -- 52
2019-06-15 14:00:00 18.2 7 Sudeste 21 Sudeste 0 -- -- 52
2019-06-15 13:00:00 16.2 3 Nordeste 22 Sudeste 0 -- -- 69
2019-06-15 12:00:00 17.3 6 Sur 19 Sudeste 0 -- -- 69
2019-06-15 11:00:00 15.9 5 Sudeste 13 Sudeste 0 -- -- 74
2019-06-15 10:00:00 13.7 3 Sudeste 9 Este 0 -- -- 83
2019-06-15 09:00:00 10.9 3 Noroeste 14 Sudeste 0 -- -- 91
2019-06-15 08:00:00 9.7 3 Sur 20 Sur 0 -- -- 96
2019-06-15 07:00:00 9.1 0 Calma 4 Sudeste 0 -- -- 92
2019-06-15 06:00:00 10 0 Calma 8 Sur 0 -- -- 90
2019-06-15 05:00:00 10.8 4 Sur 10 Sur 0 -- -- 91
2019-06-15 04:00:00 11.2 0 Calma 5 Norte 0 -- -- 89
2019-06-15 03:00:00 11.6 0 Calma 10 Sur 0 -- -- 87
2019-06-15 02:00:00 12.6 3 Noroeste 13 Sur 0 -- -- 83
2019-06-15 01:00:00 11.4 0 Calma 5 Oeste 0 -- -- 87
2019-06-15 00:00:00 11.6 0 Calma 5 Oeste 0 -- -- 88
2019-06-14 23:00:00 11.4 2 Noroeste 6 Sudeste 0 -- -- 87
2019-06-14 22:00:00 12.4 2 Noroeste 4 Norte 0 -- -- 84
2019-06-14 21:00:00 13.5 0 Calma 4 Oeste 0 -- -- 81
2019-06-14 20:00:00 14.8 2 Oeste 10 Oeste 0 -- -- 76
2019-06-14 19:00:00 16.6 3 Oeste 15 Oeste 0 -- -- 70
2019-06-14 18:00:00 16.6 3 Oeste 13 Oeste 0 -- -- 70
2019-06-14 17:00:00 17.8 2 Oeste 6 Sur 0 -- -- 73
2019-06-14 16:00:00 15.6 2 Nordeste 5 Sur 0 -- -- 76
2019-06-14 15:00:00 13.3 2 Sur 26 Sudoeste 1.4 -- -- 91
2019-06-14 14:00:00 14 4 Noroeste 20 Oeste 0.2 -- -- 77
2019-06-14 13:00:00 15.2 3 Sudeste 7 Sur 0 -- -- 76
2019-06-14 12:00:00 13.6 2 Sur 4 Sudeste 0 -- -- 77
2019-06-14 11:00:00 12.7 2 Noroeste 5 Norte 0 -- -- 82
2019-06-14 10:00:00 12.4 0 Calma 3 Sudoeste 0 -- -- 79
2019-06-14 09:00:00 11.5 0 Calma 3 Sudeste 0 -- -- 79
2019-06-14 08:00:00 10.3 0 Calma 4 Sudeste 0 -- -- 84
2019-06-14 07:00:00 9.5 0 Calma 5 Sur 0 -- -- 82
2019-06-14 06:00:00 9.8 0 Calma 3 Sudoeste 0 -- -- 81
2019-06-14 05:00:00 10.7 0 Calma 3 Sur 0 -- -- 77
2019-06-14 04:00:00 11.8 0 Calma 7 Sudoeste 0 -- -- 76
2019-06-14 03:00:00 11.7 3 Sudoeste 8 Sudoeste 0 -- -- 74
2019-06-14 02:00:00 12.1 0 Calma 6 Sur 0 -- -- 73
2019-06-14 01:00:00 13 2 Sudoeste 5 Sudeste 0 -- -- 69
2019-06-14 00:00:00 14.6 0 Calma 12 Sur 0 -- -- 62
2019-06-13 23:00:00 17.5 6 Sur 27 Sudoeste 0 -- -- 46
2019-06-13 22:00:00 18 5 Sur 25 Sur 0 -- -- 47
2019-06-13 21:00:00 18.2 4 Sur 19 Sudeste 0 -- -- 50
2019-06-13 20:00:00 18.8 6 Sur 22 Sudoeste 0 -- -- 43
2019-06-13 19:00:00 18.8 6 Sudoeste 33 Sur 0 -- -- 47
2019-06-13 18:00:00 19 9 Sur 34 Sur 0 -- -- 44
2019-06-13 17:00:00 18.9 8 Sudeste 30 Sur 0 -- -- 47
2019-06-13 16:00:00 19.6 6 Sudeste 26 Sur 0 -- -- 45
2019-06-13 15:00:00 19.4 7 Este 27 Sudeste 0 -- -- 45
2019-06-13 14:00:00 18 7 Sudeste 28 Sur 0 -- -- 48
2019-06-13 13:00:00 17.4 7 Este 26 Este 0 -- -- 55
2019-06-13 12:00:00 16.3 11 Sudeste 29 Sudeste 0 -- -- 51
2019-06-13 11:00:00 15.6 5 Este 27 Oeste 0 -- -- 50
2019-06-13 10:00:00 13.7 4 Noroeste 19 Sudoeste 0 -- -- 48
2019-06-13 09:00:00 10.1 3 Este 8 Este 0 -- -- 76
2019-06-13 08:00:00 6.5 2 Norte 6 Este 0 -- -- 84
2019-06-13 07:00:00 5.1 3 Oeste 7 Oeste 0 -- -- 86
2019-06-13 06:00:00 5 0 Calma 4 Norte 0 -- -- 84
2019-06-13 05:00:00 4.8 0 Calma 5 Oeste 0 -- -- 83
2019-06-13 04:00:00 5 2 Oeste 4 Sudoeste 0 -- -- 81
2019-06-13 03:00:00 5.5 0 Calma 4 Sudoeste 0 -- -- 81
2019-06-13 02:00:00 6.2 0 Calma 9 Sur 0 -- -- 78
2019-06-13 01:00:00 7 2 Oeste 6 Sudeste 0 -- -- 76
2019-06-13 00:00:00 7.9 2 Oeste 5 Sur 0 -- -- 71
2019-06-12 23:00:00 8.4 0 Calma 5 Sudeste 0 -- -- 69
2019-06-12 22:00:00 9.6 0 Calma 3 Oeste 0 -- -- 61
2019-06-12 21:00:00 12.2 0 Calma 10 Sudoeste 0 -- -- 51
2019-06-12 20:00:00 12.8 2 Oeste 17 Sudeste 0 -- -- 51
2019-06-12 19:00:00 14.3 3 Sur 19 Sur 0 -- -- 37
2019-06-12 18:00:00 14.8 5 Sudeste 16 Sudeste 0 -- -- 40
2019-06-12 17:00:00 14.1 6 Sudeste 19 Sur 0 -- -- 36
2019-06-12 16:00:00 13.9 8 Sudeste 22 Sur 0 -- -- 38
2019-06-12 15:00:00 13.5 6 Sudeste 23 Sudeste 0 -- -- 40
2019-06-12 14:00:00 13.4 8 Sudeste 28 Sur 0 -- -- 43
2019-06-12 13:00:00 12.4 10 Sudeste 30 Sur 0 -- -- 45
2019-06-12 12:00:00 11.5 10 Sudeste 26 Sudeste 0 -- -- 47
2019-06-12 11:00:00 10.4 8 Sudeste 18 Sudeste 0 -- -- 58
2019-06-12 10:00:00 8.4 5 Sudeste 16 Sudeste 0 -- -- 64
2019-06-12 09:00:00 4.6 3 Este 8 Este 0 -- -- 79
2019-06-12 08:00:00 2 2 Este 8 Este 0 -- -- 95
2019-06-12 07:00:00 0.6 0 Calma 3 Sudoeste 0 -- -- 92
2019-06-12 06:00:00 1 2 Oeste 4 Noroeste 0 -- -- 92
2019-06-12 05:00:00 1.2 0 Calma 4 Oeste 0 -- -- 89
2019-06-12 04:00:00 1.6 0 Calma 5 Oeste 0 -- -- 88
2019-06-12 03:00:00 2.2 0 Calma 4 Oeste 0 -- -- 87
2019-06-12 02:00:00 2.7 2 Sur 4 Sur 0 -- -- 84
2019-06-12 01:00:00 3.5 0 Calma 7 Norte 0 -- -- 79
2019-06-12 00:00:00 4.6 0 Calma 5 Oeste 0 -- -- 77
2019-06-11 23:00:00 5.1 0 Calma 6 Noroeste 0 -- -- 77
2019-06-11 22:00:00 6 2 Oeste 7 Nordeste 0 -- -- 74
2019-06-11 21:00:00 7.6 4 Oeste 14 Oeste 0 -- -- 63
2019-06-11 20:00:00 8.6 4 Norte 31 Norte 0 -- -- 57
2019-06-11 19:00:00 10.1 9 Norte 26 Norte 0 -- -- 55
2019-06-11 18:00:00 11.7 9 Norte 27 Nordeste 0 -- -- 52
2019-06-11 17:00:00 13.5 5 Norte 20 Nordeste 0 -- -- 43
2019-06-11 16:00:00 11.6 4 Noroeste 25 Norte 0 -- -- 56
2019-06-11 15:00:00 9.9 10 Sudeste 26 Sudeste 0 -- -- 80
2019-06-11 14:00:00 9.5 13 Sur 22 Sur 0 -- -- 76
2019-06-11 13:00:00 8 7 Sur 21 Sudoeste 0.2 -- -- 83
2019-06-11 12:00:00 9.2 8 Sur 26 Sudeste 0 -- -- 82
2019-06-11 11:00:00 8.8 9 Sudeste 21 Sudeste 0 -- -- 87
2019-06-11 10:00:00 7 5 Sur 15 Sudeste 0 -- -- 92
2019-06-11 09:00:00 7.2 0 Calma 5 Sudoeste 0 -- -- 92
2019-06-11 08:00:00 6.5 2 Oeste 4 Oeste 0.2 -- -- 94
2019-06-11 07:00:00 6 0 Calma 4 Oeste 0 -- -- 92
2019-06-11 06:00:00 6.5 3 Oeste 6 Oeste 1 -- -- 87
2019-06-11 05:00:00 7.2 0 Calma 3 Oeste 1.2 -- -- 90
2019-06-11 04:00:00 7.5 0 Calma 4 Sudoeste 0.4 -- -- 86
2019-06-11 03:00:00 8 0 Calma 7 Sur 0 -- -- 81
2019-06-11 02:00:00 8.2 3 Sudoeste 7 Sudeste 0 -- -- 79
2019-06-11 01:00:00 8.9 0 Calma 8 Norte 0 -- -- 74
2019-06-11 00:00:00 9.6 0 Calma 8 Sudeste 0 -- -- 72
2019-06-10 23:00:00 10.1 4 Sudeste 9 Este 0 -- -- 69
2019-06-10 22:00:00 10.3 3 Noroeste 10 Noroeste 0 -- -- 64
2019-06-10 21:00:00 11.2 3 Este 16 Nordeste 0 -- -- 66
2019-06-10 20:00:00 12.5 3 Sudeste 17 Nordeste 0 -- -- 63
2019-06-10 19:00:00 14.8 3 Sudeste 15 Nordeste 0 -- -- 56
2019-06-10 18:00:00 16.9 5 Sudeste 21 Sur 0 -- -- 48
2019-06-10 17:00:00 18 8 Sudeste 23 Este 0 -- -- 39
2019-06-10 16:00:00 17.8 6 Sudeste 23 Nordeste 0 -- -- 42
2019-06-10 15:00:00 17.9 8 Sudeste 20 Sur 0 -- -- 54
2019-06-10 14:00:00 18.1 6 Este 27 Sudeste 0 -- -- 60
2019-06-10 13:00:00 16.3 10 Sudeste 26 Sudeste 0 -- -- 63
2019-06-10 12:00:00 15.6 8 Sudeste 21 Sudeste 0 -- -- 67
2019-06-10 11:00:00 14.3 9 Sudeste 24 Sudeste 0 -- -- 72
2019-06-10 10:00:00 14.7 4 Sudeste 8 Este 0 -- -- 68
2019-06-10 09:00:00 11.7 3 Sudeste 6 Este 0 -- -- 78
2019-06-10 08:00:00 8.6 0 Calma 3 Sudeste 0 -- -- 90
2019-06-10 07:00:00 8 0 Calma 4 Oeste 0 -- -- 94
2019-06-10 06:00:00 8.1 0 Calma 5 Oeste 0 -- -- 92
2019-06-10 05:00:00 8.8 0 Calma 6 Sudoeste 0 -- -- 92
2019-06-10 04:00:00 9.7 0 Calma 5 Norte 0 -- -- 90
2019-06-10 03:00:00 10.6 0 Calma 12 Sur 1.2 -- -- 90
2019-06-10 02:00:00 11.6 4 Sudoeste 9 Sur 0 -- -- 78
2019-06-10 01:00:00 11.7 0 Calma 5 Noroeste 0 -- -- 81
2019-06-10 00:00:00 12.2 2 Sur 6 Este 0 -- -- 78
2019-06-09 23:00:00 12.6 0 Calma 5 Sudoeste 0 -- -- 78
2019-06-09 22:00:00 14.1 2 Sudoeste 9 Este 0 -- -- 72
2019-06-09 21:00:00 15.7 0 Calma 7 Sur 0 -- -- 68
2019-06-09 20:00:00 17.6 3 Sur 14 Nordeste 0 -- -- 61
2019-06-09 19:00:00 20.4 3 Oeste 15 Sudeste 0 -- -- 46
2019-06-09 18:00:00 20.2 3 Este 13 Sudoeste 0 -- -- 48
2019-06-09 17:00:00 21 3 Noroeste 15 Este 0 -- -- 43
2019-06-09 16:00:00 21.2 6 Sudeste 17 Sudeste 0 -- -- 44
2019-06-09 15:00:00 20.9 4 Nordeste 19 Sudeste 0 -- -- 46
2019-06-09 14:00:00 20.7 4 Sudeste 17 Sudoeste 0 -- -- 45
2019-06-09 13:00:00 19.9 4 Noroeste 20 Sudoeste 0 -- -- 47
2019-06-09 12:00:00 18.2 3 Este 9 Nordeste 0 -- -- 53
2019-06-09 11:00:00 17.4 3 Este 6 Este 0 -- -- 66
2019-06-09 10:00:00 15.1 2 Noroeste 9 Oeste 0 -- -- 66
2019-06-09 09:00:00 13.1 0 Calma 5 Sudeste 0 -- -- 79
2019-06-09 08:00:00 11.3 0 Calma 4 Norte 0 -- -- 85
2019-06-09 07:00:00 10.5 3 Sur 5 Sur 0 -- -- 85
2019-06-09 06:00:00 10.6 2 Noroeste 4 Sur 0 -- -- 84
2019-06-09 05:00:00 10.6 2 Sudoeste 4 Este 0 -- -- 84
2019-06-09 04:00:00 10.4 2 Noroeste 6 Noroeste 0 -- -- 83
2019-06-09 03:00:00 11.1 2 Noroeste 6 Oeste 0 -- -- 80
2019-06-09 02:00:00 11.7 2 Sur 9 Noroeste 0 -- -- 76
2019-06-09 01:00:00 12.4 2 Noroeste 7 Noroeste 0 -- -- 73
2019-06-09 00:00:00 14.2 2 Norte 13 Noroeste 0 -- -- 64
2019-06-08 23:00:00 14.9 5 Noroeste 11 Norte 0 -- -- 58
2019-06-08 22:00:00 16.3 2 Sudeste 18 Oeste 0 -- -- 60
2019-06-08 21:00:00 17.8 5 Oeste 25 Sur 0 -- -- 49
2019-06-08 20:00:00 18.6 10 Sur 26 Sudeste 0 -- -- 44
2019-06-08 19:00:00 18.8 8 Sudeste 21 Sudeste 0 -- -- 47
2019-06-08 18:00:00 19.4 5 Norte 15 Sudeste 0 -- -- 46
2019-06-08 17:00:00 19.9 8 Sur 20 Este 0 -- -- 38
2019-06-08 16:00:00 20.4 5 Este 22 Nordeste 0 -- -- 40
2019-06-08 15:00:00 19.4 6 Sudeste 22 Sudeste 0 -- -- 37
2019-06-08 14:00:00 18.2 10 Sudeste 25 Sudeste 0 -- -- 37
2019-06-08 13:00:00 17.7 8 Sudeste 24 Sudeste 0 -- -- 43
2019-06-08 12:00:00 16.8 6 Sudeste 20 Sudeste 0 -- -- 41
2019-06-08 11:00:00 12.9 2 Norte 5 Norte 0 -- -- 54
2019-06-08 10:00:00 11 3 Este 7 Este 0 -- -- 62
2019-06-08 09:00:00 7.3 0 Calma 6 Este 0 -- -- 72
2019-06-08 08:00:00 4.1 0 Calma 3 Este 0 -- -- 87
2019-06-08 07:00:00 2.6 0 Calma 3 Oeste 0 -- -- 88
2019-06-08 06:00:00 2.8 0 Calma 3 Oeste 0 -- -- 88
2019-06-08 05:00:00 3.1 0 Calma 3 Sudoeste 0 -- -- 87
2019-06-08 04:00:00 3.5 0 Calma 4 Oeste 0 -- -- 86
2019-06-08 03:00:00 4 0 Calma 4 Sudoeste 0 -- -- 87
2019-06-08 02:00:00 4.6 0 Calma 7 Norte 0 -- -- 87
2019-06-08 01:00:00 5.1 0 Calma 4 Sur 0 -- -- 84
2019-06-08 00:00:00 5.9 0 Calma 4 Oeste 0 -- -- 84
2019-06-07 23:00:00 7 0 Calma 8 Sudoeste 0 -- -- 80
2019-06-07 22:00:00 8.1 3 Sudoeste 9 Sudoeste 0 -- -- 75
2019-06-07 21:00:00 9.4 2 Oeste 9 Oeste 0 -- -- 68
2019-06-07 20:00:00 11.4 3 Sudoeste 16 Oeste 0 -- -- 63
2019-06-07 19:00:00 13.3 4 Sur 19 Sudoeste 0 -- -- 56
2019-06-07 18:00:00 13.9 8 Sudeste 22 Sudeste 0 -- -- 45
2019-06-07 17:00:00 14.5 6 Sudeste 24 Sudeste 0 -- -- 44
2019-06-07 16:00:00 15.1 6 Sudeste 20 Sudeste 0 -- -- 49
2019-06-07 15:00:00 14.6 8 Sudeste 22 Sur 0 -- -- 51
2019-06-07 14:00:00 13.7 9 Sudeste 26 Sudeste 0 -- -- 43
2019-06-07 13:00:00 13.2 9 Sudeste 25 Sur 0 -- -- 49
2019-06-07 12:00:00 11.7 6 Sudeste 21 Sudoeste 0 -- -- 62
2019-06-07 11:00:00 12.5 6 Sudeste 23 Sudeste 0 -- -- 68
2019-06-07 10:00:00 9.7 7 Sur 42 Sur 3.2 -- -- 79
2019-06-07 09:00:00 10 6 Norte 28 Este 1.8 -- -- 88
2019-06-07 08:00:00 10.3 7 Oeste 50 Sur 3.4 -- -- 88
2019-06-07 07:00:00 10.2 6 Norte 59 Sur 5.6 -- -- 85
2019-06-07 06:00:00 13.3 14 Sudeste 43 Sur 0 -- -- 60
2019-06-07 05:00:00 13.9 10 Sur 36 Sur 0 -- -- 58
2019-06-07 04:00:00 14 13 Sur 43 Sur 0 -- -- 57
2019-06-07 03:00:00 14 13 Sur 48 Sudeste 0 -- -- 57
2019-06-07 02:00:00 13.9 12 Sudeste 42 Sudeste 0 -- -- 56
2019-06-07 01:00:00 14.3 16 Sur 46 Sur 0 -- -- 53
2019-06-07 00:00:00 14.5 14 Sur 57 Sur 0 -- -- 53
2019-06-06 23:00:00 14.4 13 Sudoeste 43 Sudoeste 0 -- -- 55
2019-06-06 22:00:00 14.8 11 Sudoeste 46 Sur 0 -- -- 53
2019-06-06 21:00:00 15.7 9 Sur 51 Sur 0 -- -- 53
2019-06-06 20:00:00 16.1 10 Sudeste 45 Sur 0 -- -- 48
2019-06-06 19:00:00 16.1 11 Sudeste 44 Sudeste 0 -- -- 46
2019-06-06 18:00:00 16.5 14 Sudeste 38 Sudeste 0 -- -- 39
2019-06-06 17:00:00 16.9 5 Nordeste 26 Este 0 -- -- 43
2019-06-06 16:00:00 17.4 7 Norte 31 Sur 0 -- -- 38
2019-06-06 15:00:00 16.9 5 Norte 27 Este 0 -- -- 43
2019-06-06 14:00:00 15.1 9 Sudeste 38 Sur 0 -- -- 50
2019-06-06 13:00:00 14.3 10 Sur 30 Sudoeste 0 -- -- 48
2019-06-06 12:00:00 14.7 7 Sudeste 23 Este 0 -- -- 53
2019-06-06 11:00:00 12.5 4 Este 8 Sudeste 0 -- -- 61
2019-06-06 10:00:00 9 2 Nordeste 5 Nordeste 0 -- -- 78
2019-06-06 09:00:00 7.3 0 Calma 3 Norte 0 -- -- 87
2019-06-06 08:00:00 6.4 0 Calma 2 Noroeste 0 -- -- 93
2019-06-06 07:00:00 5.3 0 Calma 3 Sudoeste 0 -- -- 94
2019-06-06 06:00:00 5.3 0 Calma 4 Sudoeste 0 -- -- 93
2019-06-06 05:00:00 5.5 0 Calma 3 Sudoeste 0 -- -- 93
2019-06-06 04:00:00 5.5 0 Calma 3 Oeste 0 -- -- 92
2019-06-06 03:00:00 5.8 0 Calma 3 Oeste 0 -- -- 90
2019-06-06 02:00:00 5.8 0 Calma 5 Sur 0 -- -- 90
2019-06-06 01:00:00 5.3 0 Calma 4 Norte 0 -- -- 91
2019-06-06 00:00:00 5.2 0 Calma 4 Sudoeste 0 -- -- 90
2019-06-05 23:00:00 6.1 0 Calma 4 Oeste 0 -- -- 87
2019-06-05 22:00:00 7.2 0 Calma 5 Oeste 0 -- -- 85
2019-06-05 21:00:00 9.5 0 Calma 17 Noroeste 0 -- -- 76
2019-06-05 20:00:00 11.3 5 Norte 26 Noroeste 0 -- -- 59
2019-06-05 19:00:00 12.2 5 Norte 23 Norte 0 -- -- 55
2019-06-05 18:00:00 12.7 9 Norte 23 Noroeste 0 -- -- 57
2019-06-05 17:00:00 12.3 10 Norte 27 Norte 0 -- -- 55
2019-06-05 16:00:00 12.9 4 Norte 15 Noroeste 0 -- -- 71
2019-06-05 15:00:00 11.1 3 Nordeste 9 Norte 0 -- -- 73
2019-06-05 14:00:00 12 3 Sudeste 9 Este 0 -- -- 69
2019-06-05 13:00:00 7.9 2 Sur 11 Nordeste 2.6 -- -- 89
2019-06-05 12:00:00 9 0 Calma 6 Este 5.8 -- -- 90
2019-06-05 11:00:00 9.8 0 Calma 29 Oeste 7.6 -- -- 91
2019-06-05 10:00:00 10.9 5 Oeste 23 Sudoeste 1.6 -- -- 71
2019-06-05 09:00:00 12 8 Sudeste 36 Oeste 0 -- -- 72
2019-06-05 08:00:00 12.4 17 Sudoeste 47 Sudoeste 0 -- -- 63
2019-06-05 07:00:00 12.7 5 Sudeste 16 Sudeste 0 -- -- 61
2019-06-05 06:00:00 11.7 3 Oeste 15 Sudoeste 0 -- -- 81
2019-06-05 05:00:00 11.7 2 Oeste 5 Sur 0 -- -- 94
2019-06-05 04:00:00 12.2 0 Calma 4 Oeste 0 -- -- 92
2019-06-05 03:00:00 12.8 0 Calma 5 Sudeste 0 -- -- 93
2019-06-05 02:00:00 13.4 2 Oeste 6 Sur 0.2 -- -- 92
2019-06-05 01:00:00 13.9 0 Calma 7 Sudoeste 0 -- -- 92
2019-06-05 00:00:00 14.3 3 Sur 8 Sur 0.8 -- -- 89
2019-06-04 23:00:00 15.5 4 Sudoeste 32 Sur 1.8 -- -- 81
2019-06-04 22:00:00 22 9 Sudoeste 30 Oeste 0 -- -- 38
2019-06-04 21:00:00 23 9 Sur 37 Oeste 0 -- -- 37
2019-06-04 20:00:00 23.2 7 Este 25 Sudeste 0 -- -- 33
2019-06-04 19:00:00 23.5 6 Nordeste 23 Este 0 -- -- 32
2019-06-04 18:00:00 24.6 4 Norte 20 Este 0 -- -- 32
2019-06-04 17:00:00 24.7 7 Sudeste 30 Sur 0 -- -- 30
2019-06-04 16:00:00 24.4 11 Sudeste 35 Sudeste 0 -- -- 31
2019-06-04 15:00:00 24.9 7 Nordeste 32 Sur 0 -- -- 27
2019-06-04 14:00:00 24.3 13 Sur 35 Sudeste 0 -- -- 28
2019-06-04 13:00:00 23.7 8 Sudeste 31 Sudeste 0 -- -- 33
2019-06-04 12:00:00 23.4 8 Sudeste 27 Sur 0 -- -- 35
2019-06-04 11:00:00 19.9 3 Este 7 Noroeste 0 -- -- 54
2019-06-04 10:00:00 16.2 3 Sudeste 6 Este 0 -- -- 67
2019-06-04 09:00:00 12.7 0 Calma 3 Sudeste 0 -- -- 83
2019-06-04 08:00:00 11.7 0 Calma 5 Sudeste 0 -- -- 82
2019-06-04 07:00:00 10.5 0 Calma 3 Oeste 0 -- -- 82
2019-06-04 06:00:00 10.9 0 Calma 5 Sudoeste 0 -- -- 80
2019-06-04 05:00:00 11.5 2 Oeste 5 Noroeste 0 -- -- 79
2019-06-04 04:00:00 12.3 3 Sur 5 Oeste 0 -- -- 77
2019-06-04 03:00:00 13.4 0 Calma 4 Noroeste 0 -- -- 73
2019-06-04 02:00:00 14.5 2 Oeste 5 Este 0 -- -- 69
2019-06-04 01:00:00 15 2 Sur 4 Oeste 0 -- -- 68
2019-06-04 00:00:00 15.5 0 Calma 3 Sur 0 -- -- 66
2019-06-03 23:00:00 16.6 0 Calma 6 Oeste 0 -- -- 60
2019-06-03 22:00:00 19.5 0 Calma 17 Oeste 0 -- -- 51
2019-06-03 21:00:00 21.4 5 Sudoeste 15 Sur 0 -- -- 44
2019-06-03 20:00:00 21 2 Oeste 6 Oeste 0 -- -- 44
2019-06-03 19:00:00 22.8 4 Noroeste 13 Sudeste 0 -- -- 38
2019-06-03 18:00:00 25.1 8 Sudeste 19 Sudeste 0 -- -- 29
2019-06-03 17:00:00 24.6 5 Noroeste 26 Sudeste 0 -- -- 35
2019-06-03 16:00:00 25.8 7 Sur 24 Nordeste 0 -- -- 33
2019-06-03 15:00:00 25 5 Este 24 Sudeste 0 -- -- 39
2019-06-03 14:00:00 25.3 10 Sudeste 21 Este 0 -- -- 38
2019-06-03 13:00:00 24.1 4 Nordeste 14 Oeste 0 -- -- 45
2019-06-03 12:00:00 21.1 2 Norte 7 Norte 0 -- -- 61
2019-06-03 11:00:00 18.8 0 Calma 6 Este 0 -- -- 60
2019-06-03 10:00:00 17.5 2 Oeste 6 Este 0 -- -- 65
2019-06-03 09:00:00 14.7 2 Este 7 Este 0 -- -- 78
2019-06-03 08:00:00 12.9 0 Calma 4 Norte 0 -- -- 82
2019-06-03 07:00:00 12.2 0 Calma 5 Norte 0 -- -- 80
2019-06-03 06:00:00 12.4 0 Calma 6 Sudoeste 0 -- -- 79
2019-06-03 05:00:00 12.3 0 Calma 3 Oeste 0 -- -- 81
2019-06-03 04:00:00 13 0 Calma 4 Sudoeste 0 -- -- 79
2019-06-03 03:00:00 14.1 0 Calma 5 Este 0 -- -- 76
2019-06-03 02:00:00 15.1 2 Noroeste 6 Sur 0 -- -- 72
2019-06-03 01:00:00 16.8 4 Oeste 18 Oeste 0 -- -- 66
2019-06-03 00:00:00 15.8 0 Calma 5 Sur 0 -- -- 66
2019-06-02 23:00:00 17.1 0 Calma 3 Noroeste 0 -- -- 64
2019-06-02 22:00:00 18.8 2 Sudeste 5 Sur 0 -- -- 58
2019-06-02 21:00:00 19.9 0 Calma 3 Norte 0 -- -- 56
2019-06-02 20:00:00 21.3 2 Sudoeste 6 Sudoeste 0 -- -- 48
2019-06-02 19:00:00 23.1 3 Sudoeste 8 Sur 0 -- -- 42
2019-06-02 18:00:00 25.2 0 Calma 15 Sur 0 -- -- 40
2019-06-02 17:00:00 26.9 5 Sudeste 16 Sudeste 0 -- -- 31
2019-06-02 16:00:00 25.8 5 Sudeste 18 Sur 0 -- -- 32
2019-06-02 15:00:00 26.4 6 Sudeste 21 Sudeste 0 -- -- 29
2019-06-02 14:00:00 25.9 6 Sudeste 17 Sur 0 -- -- 32
2019-06-02 13:00:00 25 7 Sudeste 16 Sur 0 -- -- 34
2019-06-02 12:00:00 23.1 3 Nordeste 5 Este 0 -- -- 48
2019-06-02 11:00:00 20.7 2 Sudeste 4 Sudeste 0 -- -- 59
2019-06-02 10:00:00 17.3 2 Sudeste 4 Sudeste 0 -- -- 56
2019-06-02 09:00:00 13.3 2 Sudeste 4 Este 0 -- -- 72
2019-06-02 08:00:00 9.7 0 Calma 3 Este 0 -- -- 89
2019-06-02 07:00:00 8.8 0 Calma 3 Oeste 0 -- -- 86
2019-06-02 06:00:00 9.1 0 Calma 3 Oeste 0 -- -- 84
2019-06-02 05:00:00 9.5 0 Calma -- -- 0 -- -- 82
2019-06-02 04:00:00 10.1 0 Calma -- -- 0 -- -- 80
2019-06-02 03:00:00 10.6 0 Calma 3 Sudoeste 0 -- -- 78
2019-06-02 02:00:00 11.5 0 Calma -- -- 0 -- -- 75
2019-06-02 01:00:00 12.5 0 Calma -- -- 0 -- -- 71
2019-06-02 00:00:00 13.9 0 Calma 3 Sudoeste 0 -- -- 67
2019-06-01 23:00:00 15.3 0 Calma 4 Sudoeste 0 -- -- 62
2019-06-01 22:00:00 18 0 Calma 13 Sudoeste 0 -- -- 54
2019-06-01 21:00:00 20.8 4 Sudoeste 15 Oeste 0 -- -- 42
2019-06-01 20:00:00 21.8 4 Sudoeste 12 Sur 0 -- -- 39
2019-06-01 19:00:00 23.4 3 Sur 16 Sur 0 -- -- 41
2019-06-01 18:00:00 25 6 Sudeste 20 Sudeste 0 -- -- 35
2019-06-01 17:00:00 25.3 9 Sudeste 25 Sudeste 0 -- -- 31
2019-06-01 16:00:00 25.1 9 Sur 23 Sudeste 0 -- -- 32
2019-06-01 15:00:00 24.4 8 Sudeste 21 Sur 0 -- -- 35
2019-06-01 14:00:00 24.2 6 Sudeste 21 Sudeste 0 -- -- 42
2019-06-01 13:00:00 23.2 6 Sudeste 17 Sudeste 0 -- -- 44
2019-06-01 12:00:00 21.6 6 Sudeste 21 Sudeste 0 -- -- 50
2019-06-01 11:00:00 19.5 2 Este 5 Sudeste 0 -- -- 53
2019-06-01 10:00:00 16.6 0 Calma 5 Sudeste 0 -- -- 64
2019-06-01 09:00:00 12.8 2 Este 5 Este 0 -- -- 81
2019-06-01 08:00:00 9.7 0 Calma 3 Nordeste 0 -- -- 95
2019-06-01 07:00:00 8.9 0 Calma -- -- 0 -- -- 91
2019-06-01 06:00:00 9.3 0 Calma -- -- 0 -- -- 91
2019-06-01 05:00:00 9.7 0 Calma -- -- 0 -- -- 89
2019-06-01 04:00:00 10.2 0 Calma -- -- 0 -- -- 86
2019-06-01 03:00:00 10.9 0 Calma 0 Calma 0 -- -- 84
2019-06-01 02:00:00 11.7 0 Calma 3 Sudoeste 0 -- -- 82
2019-06-01 01:00:00 12.6 0 Calma 3 Oeste 0 -- -- 79
2019-06-01 00:00:00 13.8 0 Calma 3 Sudoeste 0 -- -- 76
2019-05-31 23:00:00 15.2 0 Calma 3 Sur 0 -- -- 71
2019-05-31 22:00:00 17 0 Calma 12 Oeste 0 -- -- 64
2019-05-31 21:00:00 19.8 5 Sudoeste 14 Sur 0 -- -- 54
2019-05-31 20:00:00 20.3 3 Sur 14 Sur 0 -- -- 51
2019-05-31 19:00:00 22.4 4 Sur 22 Sudeste 0 -- -- 42
2019-05-31 18:00:00 23.5 7 Sudeste 25 Sur 0 -- -- 38
2019-05-31 17:00:00 23.7 9 Sudeste 23 Sudeste 0 -- -- 38
2019-05-31 16:00:00 23.3 11 Sudeste 28 Sudeste 0 -- -- 39
2019-05-31 15:00:00 23 11 Sudeste 25 Sur 0 -- -- 35
2019-05-31 14:00:00 22.9 5 Sudeste 19 Este 0 -- -- 39
2019-05-31 13:00:00 22.3 6 Sudeste 21 Oeste 0 -- -- 38
2019-05-31 12:00:00 20.9 5 Sudeste 21 Sudoeste 0 -- -- 42
2019-05-31 11:00:00 18.1 4 Sudeste 8 Sudeste 0 -- -- 43
2019-05-31 10:00:00 14.7 2 Este 5 Sudeste 0 -- -- 56
2019-05-31 09:00:00 10.6 3 Este 5 Este 0 -- -- 64
2019-05-31 08:00:00 6.2 0 Calma 4 Nordeste 0 -- -- 81
2019-05-31 07:00:00 5.3 0 Calma 3 Sudoeste 0 -- -- 79
2019-05-31 06:00:00 5.5 0 Calma 3 Oeste 0 -- -- 72
2019-05-31 05:00:00 5.9 0 Calma 4 Sudoeste 0 -- -- 73
2019-05-31 04:00:00 6.4 0 Calma 3 Sudoeste 0 -- -- 70
2019-05-31 03:00:00 7.2 0 Calma 3 Oeste 0 -- -- 69
2019-05-31 02:00:00 8.3 0 Calma 3 Oeste 0 -- -- 68
2019-05-31 01:00:00 9.5 0 Calma 3 Sudoeste 0 -- -- 66
2019-05-31 00:00:00 10.9 0 Calma 5 Oeste 0 -- -- 67
2019-05-30 23:00:00 12.5 2 Oeste 5 Norte 0 -- -- 61
2019-05-30 22:00:00 14.1 0 Calma 9 Oeste 0 -- -- 58
2019-05-30 21:00:00 16.3 2 Oeste 11 Este 0 -- -- 54
2019-05-30 20:00:00 18.7 5 Noroeste 14 Noroeste 0 -- -- 42
2019-05-30 19:00:00 19.9 4 Noroeste 12 Nordeste 0 -- -- 34
2019-05-30 18:00:00 23 3 Sudeste 12 Este 0 -- -- 29
2019-05-30 17:00:00 23.7 3 Este 16 Este 0 -- -- 27
2019-05-30 16:00:00 23.8 3 Este 14 Nordeste 0 -- -- 27
2019-05-30 15:00:00 23.5 3 Este 9 Este 0 -- -- 24
2019-05-30 14:00:00 22.2 4 Este 19 Sur 0 -- -- 32
2019-05-30 13:00:00 20.1 6 Sudeste 19 Sudeste 0 -- -- 40
2019-05-30 12:00:00 18.6 5 Sudeste 17 Sur 0 -- -- 45
2019-05-30 11:00:00 16.2 6 Sudeste 16 Sudeste 0 -- -- 49
2019-05-30 10:00:00 14.9 3 Sudeste 10 Sudeste 0 -- -- 57
2019-05-30 09:00:00 10.4 0 Calma 5 Norte 0 -- -- 69
2019-05-30 08:00:00 6.6 0 Calma 4 Este 0 -- -- 87
2019-05-30 07:00:00 5.4 0 Calma 4 Oeste 0 -- -- 81
2019-05-30 06:00:00 5.7 0 Calma 4 Sudoeste 0 -- -- 80
2019-05-30 05:00:00 6.2 0 Calma 4 Sudoeste 0 -- -- 79
2019-05-30 04:00:00 6.6 0 Calma 4 Sudoeste 0 -- -- 78
2019-05-30 03:00:00 7.2 0 Calma 6 Sudoeste 0 -- -- 78
2019-05-30 02:00:00 7.5 0 Calma 5 Oeste 0 -- -- 77
2019-05-30 01:00:00 7.7 2 Oeste 5 Sudoeste 0 -- -- 76
2019-05-30 00:00:00 8.2 2 Oeste 5 Sudoeste 0 -- -- 74
2019-05-29 23:00:00 9 2 Oeste 9 Sudoeste 0 -- -- 69
2019-05-29 22:00:00 10 2 Sudoeste 11 Nordeste 0 -- -- 64
2019-05-29 21:00:00 11.9 3 Noroeste 23 Este 0 -- -- 56
2019-05-29 20:00:00 12.8 9 Noroeste 28 Noroeste 0 -- -- 52
2019-05-29 19:00:00 14 8 Noroeste 35 Noroeste 0 -- -- 48
2019-05-29 18:00:00 14.9 13 Noroeste 32 Noroeste 0 -- -- 47
2019-05-29 17:00:00 15.7 11 Noroeste 30 Norte 0 -- -- 43
2019-05-29 16:00:00 15.8 8 Norte 24 Noroeste 0 -- -- 39
2019-05-29 15:00:00 15.2 9 Norte 32 Noroeste 0 -- -- 40
2019-05-29 14:00:00 14.8 10 Norte 31 Norte 0 -- -- 43
2019-05-29 13:00:00 14.5 8 Norte 28 Nordeste 0 -- -- 42
2019-05-29 12:00:00 14.2 8 Norte 23 Nordeste 0 -- -- 38
2019-05-29 11:00:00 12.6 7 Norte 30 Noroeste 0 -- -- 40
2019-05-29 10:00:00 11.8 5 Norte 22 Norte 0 -- -- 44
2019-05-29 09:00:00 9.6 5 Norte 22 Noroeste 0 -- -- 51
2019-05-29 08:00:00 6.7 6 Norte 15 Norte 0 -- -- 58
2019-05-29 07:00:00 4.1 0 Calma 6 Sur 0 -- -- 79
2019-05-29 06:00:00 5 3 Oeste 15 Nordeste 0 -- -- 77
2019-05-29 05:00:00 4.7 2 Oeste 5 Noroeste 0 -- -- 75
2019-05-29 04:00:00 5.8 0 Calma 15 Noroeste 0 -- -- 67
2019-05-29 03:00:00 7 5 Norte 25 Nordeste 0 -- -- 60
2019-05-29 02:00:00 6.8 4 Este 15 Norte 0 -- -- 66
2019-05-29 01:00:00 7.8 6 Norte 27 Noroeste 0 -- -- 60
2019-05-29 00:00:00 7.7 9 Norte 24 Noroeste 0 -- -- 59
2019-05-28 23:00:00 7.3 9 Noroeste 37 Noroeste 0 -- -- 64
2019-05-28 22:00:00 8.1 11 Noroeste 31 Norte 0 -- -- 60
2019-05-28 21:00:00 8.3 6 Norte 24 Noroeste 0 -- -- 58
2019-05-28 20:00:00 9.4 5 Sur 28 Oeste 0 -- -- 56
2019-05-28 19:00:00 10.4 7 Noroeste 35 Norte 0 -- -- 49
2019-05-28 18:00:00 11.4 14 Noroeste 45 Noroeste 0 -- -- 49
2019-05-28 17:00:00 13.4 12 Norte 38 Noroeste 0 -- -- 47
2019-05-28 16:00:00 14.7 12 Norte 31 Noroeste 0 -- -- 42
2019-05-28 15:00:00 14 9 Norte 33 Norte 0 -- -- 44
2019-05-28 14:00:00 14.3 12 Norte 33 Noroeste 0 -- -- 43
2019-05-28 13:00:00 13.8 13 Norte 32 Noroeste 0 -- -- 50
2019-05-28 12:00:00 13.1 12 Noroeste 35 Noroeste 0 -- -- 45
2019-05-28 11:00:00 12.3 13 Noroeste 32 Noroeste 0 -- -- 48
2019-05-28 10:00:00 12.3 9 Norte 26 Noroeste 0 -- -- 47
2019-05-28 09:00:00 10.9 3 Este 15 Norte 0 -- -- 56
2019-05-28 08:00:00 8.6 6 Este 14 Este 0 -- -- 64
2019-05-28 07:00:00 6.4 3 Oeste 11 Noroeste 0 -- -- 68
2019-05-28 06:00:00 6.4 0 Calma 16 Sur 0 -- -- 64
2019-05-28 05:00:00 6.7 3 Noroeste 9 Norte 0 -- -- 63
2019-05-28 04:00:00 6.8 2 Oeste 8 Noroeste 0 -- -- 65
2019-05-28 03:00:00 7.3 3 Noroeste 10 Oeste 0 -- -- 64
2019-05-28 02:00:00 7.9 2 Oeste 13 Noroeste 0 -- -- 68
2019-05-28 01:00:00 8.9 2 Oeste 11 Noroeste 0 -- -- 69
2019-05-28 00:00:00 10 2 Oeste 18 Norte 0 -- -- 69
2019-05-27 23:00:00 11.7 4 Norte 20 Noroeste 0 -- -- 65
2019-05-27 22:00:00 12.5 4 Este 17 Oeste 0 -- -- 64
2019-05-27 21:00:00 13.6 5 Noroeste 19 Norte 0 -- -- 56
2019-05-27 20:00:00 14.6 5 Norte 26 Norte 0 -- -- 55
2019-05-27 19:00:00 15.6 8 Norte 30 Oeste 0 -- -- 53
2019-05-27 18:00:00 17.7 12 Norte 33 Norte 0 -- -- 48
2019-05-27 17:00:00 18.8 12 Norte 27 Noroeste 0 -- -- 45
2019-05-27 16:00:00 20 10 Norte 22 Norte 0 -- -- 42
2019-05-27 15:00:00 19.6 7 Noroeste 21 Noroeste 0 -- -- 45
2019-05-27 14:00:00 18.6 4 Este 23 Sur 0 -- -- 59
2019-05-27 13:00:00 16 9 Sudeste 26 Sudeste 0 -- -- 64
2019-05-27 12:00:00 16.3 3 Sudeste 11 Sudeste 0 -- -- 63
2019-05-27 11:00:00 14.3 3 Sudeste 14 Sudeste 0 -- -- 67
2019-05-27 10:00:00 12.9 3 Sudeste 16 Sudeste 0 -- -- 69
2019-05-27 09:00:00 12.7 3 Sudeste 15 Norte 0 -- -- 71
2019-05-27 08:00:00 6.8 2 Sudeste 4 Sur 0 -- -- 95
2019-05-27 07:00:00 5.2 0 Calma 4 Sur 0 -- -- 95
2019-05-27 06:00:00 5.4 0 Calma 4 Norte 0 -- -- 94
2019-05-27 05:00:00 5.5 0 Calma 4 Noroeste 0 -- -- 92
2019-05-27 04:00:00 5.8 0 Calma 4 Sudoeste 0 -- -- 90
2019-05-27 03:00:00 6.2 0 Calma 3 Noroeste 0 -- -- 88
2019-05-27 02:00:00 6.9 0 Calma 5 Norte 0 -- -- 85
2019-05-27 01:00:00 7.8 0 Calma 4 Oeste 0 -- -- 83
2019-05-27 00:00:00 9.2 0 Calma 6 Oeste 0 -- -- 77
2019-05-26 23:00:00 9.7 3 Oeste 9 Oeste 0 -- -- 74
2019-05-26 22:00:00 10.3 0 Calma 9 Norte 0 -- -- 69
2019-05-26 21:00:00 11.4 2 Oeste 8 Oeste 0 -- -- 66
2019-05-26 20:00:00 12.9 2 Sudeste 15 Noroeste 0 -- -- 59
2019-05-26 19:00:00 15.2 8 Noroeste 24 Norte 0 -- -- 47
2019-05-26 18:00:00 18 3 Este 22 Norte 0 -- -- 43
2019-05-26 17:00:00 18.3 8 Noroeste 22 Norte 0 -- -- 40
2019-05-26 16:00:00 19 9 Norte 22 Noroeste 0 -- -- 42
2019-05-26 15:00:00 19.1 4 Este 12 Nordeste 0 -- -- 43
2019-05-26 14:00:00 18.4 3 Sudeste 9 Norte 0 -- -- 51
2019-05-26 13:00:00 18 3 Este 12 Nordeste 0 -- -- 50
2019-05-26 12:00:00 17.3 4 Este 13 Norte 0 -- -- 52
2019-05-26 11:00:00 15.8 4 Este 9 Este 0 -- -- 56
2019-05-26 10:00:00 14.2 3 Este 12 Nordeste 0 -- -- 60
2019-05-26 09:00:00 11.4 5 Este 10 Sudeste 0 -- -- 66
2019-05-26 08:00:00 6.5 3 Este 6 Norte 0 -- -- 81
2019-05-26 07:00:00 4.5 0 Calma 4 Sudoeste 0 -- -- 88
2019-05-26 06:00:00 4.9 0 Calma 5 Sudoeste 0 -- -- 86
2019-05-26 05:00:00 5.7 0 Calma 7 Sur 0 -- -- 82
2019-05-26 04:00:00 6.3 2 Noroeste 5 Oeste 0 -- -- 82
2019-05-26 03:00:00 7.2 3 Oeste 8 Sudoeste 0 -- -- 80
2019-05-26 02:00:00 7.4 2 Sudeste 6 Sudoeste 0 -- -- 79
2019-05-26 01:00:00 7.7 2 Sudoeste 7 Sudeste 0 -- -- 80
2019-05-26 00:00:00 8.2 0 Calma 7 Sudoeste 0 -- -- 79